.
WxDataArchive / Data Records for 2016-04-20
2016-04-19 April 2016 2016-04-21

Data Records for Wednesday, 20 April 2016

Time	Temp	Chill	HIndex	Humid	Dewpt	 Wind 	HiWind	WindDir	Rain 	Barom
-----	----	-----	------	-----	-----	------	------	-------	-----	-----
00:00	52.5	52.5	52.5	65	41.1	3	7	90	0.00	30.198 
00:05	52.5	52.5	52.5	65	41.1	2	4	112	0.00	30.198 
00:10	52.3	52.3	52.3	65	40.9	3	9	112	0.00	30.198 
00:15	52.3	52.3	52.3	64	40.5	2	4	112	0.00	30.194 
00:20	52.3	52.3	52.3	64	40.5	2	7	90	0.00	30.194 
00:25	52.3	52.3	52.3	64	40.5	2	5	90	0.00	30.194 
00:30	52.3	52.3	52.3	64	40.5	3	6	112	0.00	30.195 
00:35	52.3	52.3	52.3	64	40.5	2	9	90	0.00	30.195 
00:40	52.3	52.3	52.3	63	40.1	3	6	90	0.00	30.195 
00:45	52.3	52.3	52.3	63	40.1	3	6	90	0.00	30.195 
00:50	52.3	52.3	52.3	63	40.1	3	5	90	0.00	30.195 
00:55	52.3	52.3	52.3	62	39.7	3	6	90	0.00	30.195 
01:00	52.3	52.3	52.3	62	39.7	2	5	90	0.00	30.198 
01:05	52.2	52.2	52.2	62	39.6	2	5	90	0.00	30.198 
01:10	52.2	52.2	52.2	63	40.0	1	5	90	0.00	30.198 
01:15	52.0	52.0	52.0	64	40.2	2	5	68	0.00	30.194 
01:20	52.0	52.0	52.0	65	40.6	1	4	112	0.00	30.194 
01:25	51.9	51.9	51.9	65	40.5	2	6	68	0.00	30.194 
01:30	51.9	51.9	51.9	64	40.1	2	11	90	0.00	30.193 
01:35	51.9	51.9	51.9	64	40.1	2	5	112	0.00	30.193 
01:40	51.9	51.9	51.9	63	39.7	3	7	112	0.00	30.193 
01:45	52.0	52.0	52.0	62	39.4	4	9	90	0.00	30.186 
01:50	52.0	52.0	52.0	62	39.4	3	6	90	0.00	30.186 
01:55	52.0	52.0	52.0	62	39.4	4	9	112	0.00	30.186 
02:00	52.0	52.0	52.0	62	39.4	3	7	112	0.00	30.184 
02:05	52.0	52.0	52.0	62	39.4	3	7	112	0.00	30.184 
02:10	51.9	51.9	51.9	62	39.3	3	7	90	0.00	30.184 
02:15	51.9	51.9	51.9	63	39.7	3	6	90	0.00	30.182 
02:20	51.9	51.9	51.9	64	40.1	2	5	112	0.00	30.182 
02:25	51.7	51.7	51.7	64	39.9	3	6	112	0.00	30.182 
02:30	51.7	51.7	51.7	64	39.9	3	7	90	0.00	30.177 
02:35	51.7	51.7	51.7	65	40.3	2	6	90	0.00	30.177 
02:40	51.6	51.6	51.6	65	40.2	2	6	112	0.00	30.177 
02:45	51.6	51.6	51.6	65	40.2	3	9	112	0.00	30.176 
02:50	51.4	51.4	51.4	65	40.0	2	6	112	0.00	30.176 
02:55	51.4	51.4	51.4	65	40.0	3	5	90	0.00	30.176 
03:00	51.3	51.3	51.3	65	39.9	3	9	90	0.00	30.178 
03:05	51.3	51.3	51.3	65	39.9	2	5	90	0.00	30.178 
03:10	51.3	51.3	51.3	65	39.9	3	6	90	0.00	30.178 
03:15	51.1	51.1	51.1	65	39.7	2	6	90	0.00	30.172 
03:20	51.0	51.0	51.0	65	39.7	4	7	90	0.00	30.172 
03:25	51.0	51.0	51.0	65	39.7	4	7	90	0.00	30.172 
03:30	50.8	50.8	50.8	65	39.5	4	13	90	0.00	30.166 
03:35	50.8	50.8	50.8	66	39.9	3	9	90	0.00	30.166 
03:40	50.7	50.7	50.7	66	39.8	4	10	90	0.00	30.166 
03:45	50.5	50.5	50.5	67	40.0	4	7	90	0.00	30.164 
03:50	50.4	50.4	50.4	67	39.9	3	6	90	0.00	30.164 
03:55	50.4	50.4	50.4	67	39.9	3	6	112	0.00	30.164 
04:00	50.2	50.2	50.2	67	39.7	3	6	112	0.00	30.169 
04:05	50.2	50.2	50.2	68	40.1	3	7	90	0.00	30.169 
04:10	50.1	50.1	50.1	67	39.6	4	12	90	0.00	30.169 
04:15	50.1	50.1	50.1	67	39.6	2	7	90	0.00	30.168 
04:20	50.1	50.1	50.1	67	39.6	2	6	90	0.00	30.168 
04:25	50.1	50.1	50.1	67	39.6	3	6	90	0.00	30.168 
04:30	49.9	49.9	49.9	67	39.4	3	6	90	0.00	30.170 
04:35	49.9	49.9	49.9	67	39.4	3	10	90	0.00	30.170 
04:40	49.9	49.9	49.9	67	39.4	3	6	90	0.00	30.170 
04:45	49.9	49.9	49.9	67	39.4	3	6	90	0.00	30.167 
04:50	49.8	48.6	49.8	67	39.3	4	7	90	0.00	30.167 
04:55	49.8	48.6	49.8	67	39.3	4	10	112	0.00	30.167 
05:00	49.6	48.4	49.6	67	39.1	4	7	112	0.00	30.157 
05:05	49.6	48.4	49.6	67	39.1	4	10	112	0.00	30.157 
05:10	49.5	49.5	49.5	68	39.4	1	5	90	0.00	30.157 
05:15	49.5	49.5	49.5	67	39.0	2	5	90	0.00	30.171 
05:20	49.4	49.4	49.4	67	38.9	1	5	90	0.00	30.171 
05:25	49.4	49.4	49.4	67	38.9	1	3	112	0.00	30.171 
05:30	49.4	49.4	49.4	67	38.9	2	4	90	0.00	30.175 
05:35	49.4	49.4	49.4	66	38.5	2	5	90	0.00	30.175 
05:40	49.4	49.4	49.4	66	38.5	2	6	90	0.00	30.175 
05:45	49.4	49.4	49.4	66	38.5	1	4	90	0.00	30.179 
05:50	49.2	49.2	49.2	66	38.3	2	7	112	0.00	30.179 
05:55	49.2	49.2	49.2	65	37.9	2	3	68	0.00	30.179 
06:00	49.2	49.2	49.2	65	37.9	1	4	90	0.00	30.181 
06:05	49.2	49.2	49.2	65	37.9	1	4	112	0.00	30.181 
06:10	49.4	49.4	49.4	65	38.1	1	2	112	0.00	30.181 
06:15	49.4	49.4	49.4	65	38.1	1	3	112	0.00	30.187 
06:20	49.4	49.4	49.4	65	38.1	1	3	112	0.00	30.187 
06:25	49.4	49.4	49.4	64	37.7	1	4	90	0.00	30.187 
06:30	49.5	49.5	49.5	66	38.6	0	3	90	0.00	30.187 
06:35	49.5	49.5	49.5	67	39.0	2	4	90	0.00	30.187 
06:40	49.4	49.4	49.4	67	38.9	2	5	90	0.00	30.187 
06:45	49.2	49.2	49.2	67	38.7	2	5	112	0.00	30.179 
06:50	49.1	49.1	49.1	68	39.0	1	4	90	0.00	30.179 
06:55	49.1	49.1	49.1	69	39.4	2	4	90	0.00	30.179 
07:00	48.9	48.9	48.9	71	39.9	2	4	90	0.00	30.180 
07:05	48.8	48.8	48.8	71	39.8	3	6	90	0.00	30.180 
07:10	48.5	48.5	48.5	72	39.9	3	7	90	0.00	30.180 
07:15	48.5	48.5	48.5	72	39.9	3	7	90	0.00	30.176 
07:20	48.3	48.3	48.3	71	39.3	3	10	112	0.00	30.176 
07:25	48.3	48.3	48.3	70	39.0	1	5	112	0.00	30.176 
07:30	48.5	48.5	48.5	68	38.4	1	5	112	0.00	30.180 
07:35	48.6	48.6	48.6	65	37.4	2	5	112	0.00	30.180 
07:40	48.8	48.8	48.8	64	37.2	3	9	90	0.00	30.180 
07:45	48.9	48.9	48.9	64	37.3	2	6	112	0.00	30.176 
07:50	49.1	49.1	49.1	65	37.8	2	7	90	0.00	30.176 
07:55	49.1	49.1	49.1	63	37.1	3	6	112	0.00	30.176 
08:00	49.4	49.4	49.4	63	37.3	2	7	68	0.00	30.177 
08:05	49.5	49.5	49.5	60	36.2	3	7	90	0.00	30.177 
08:10	49.6	49.6	49.6	59	35.9	3	7	112	0.00	30.177 
08:15	49.8	49.8	49.8	59	36.1	3	5	90	0.00	30.186 
08:20	49.8	49.8	49.8	59	36.1	3	6	90	0.00	30.186 
08:25	49.6	49.6	49.6	59	35.9	2	5	112	0.00	30.186 
08:30	49.5	48.3	49.5	59	35.8	4	7	112	0.00	30.174 
08:35	49.4	48.2	49.4	59	35.7	4	10	90	0.00	30.174 
08:40	49.5	48.3	49.5	59	35.8	4	9	90	0.00	30.174 
08:45	49.9	48.8	49.9	59	36.1	4	10	90	0.00	30.169 
08:50	50.5	50.5	50.5	58	36.3	4	9	112	0.00	30.169 
08:55	51.0	51.0	51.0	58	36.7	4	10	112	0.00	30.169 
09:00	51.3	51.3	51.3	58	37.0	3	11	90	0.00	30.166 
09:05	51.7	51.7	51.7	54	35.6	4	11	112	0.00	30.166 
09:10	51.9	51.9	51.9	54	35.8	4	9	90	0.00	30.166 
09:15	52.2	52.2	52.2	54	36.1	4	9	112	0.00	30.165 
09:20	52.5	52.5	52.5	54	36.3	4	10	112	0.00	30.165 
09:25	52.6	52.6	52.6	56	37.4	3	9	90	0.00	30.165 
09:30	52.9	52.9	52.9	54	36.7	4	10	90	0.00	30.171 
09:35	53.1	53.1	53.1	53	36.4	4	9	90	0.00	30.171 
09:40	53.2	53.2	53.2	55	37.5	3	6	112	0.00	30.171 
09:45	53.5	53.5	53.5	54	37.3	4	7	112	0.00	30.172 
09:50	53.5	53.5	53.5	51	35.8	4	9	112	0.00	30.172 
09:55	53.9	53.9	53.9	51	36.2	4	9	90	0.00	30.172 
10:00	54.1	54.1	54.1	50	35.9	5	10	112	0.00	30.157 
10:05	54.2	54.2	54.2	52	37.0	3	9	90	0.00	30.157 
10:10	55.0	55.0	55.0	48	35.7	4	12	90	0.00	30.157 
10:15	55.7	55.7	55.7	47	35.8	4	10	112	0.00	30.156 
10:20	55.9	55.9	55.9	46	35.4	4	10	112	0.00	30.156 
10:25	55.9	55.9	55.9	46	35.4	5	12	112	0.00	30.156 
10:30	56.2	56.2	56.2	46	35.7	5	10	112	0.00	30.147 
10:35	56.7	56.7	56.7	46	36.2	4	11	112	0.00	30.147 
10:40	57.3	57.3	57.3	48	37.8	3	8	112	0.00	30.147 
10:45	58.0	58.0	58.0	43	35.6	4	10	112	0.00	30.146 
10:50	58.0	58.0	58.0	43	35.6	4	9	112	0.00	30.146 
10:55	58.0	58.0	58.0	44	36.2	4	9	112	0.00	30.146 
11:00	58.3	58.3	58.3	43	35.9	5	11	112	0.00	30.142 
11:05	58.7	58.7	58.7	47	38.5	4	9	112	0.00	30.142 
11:10	58.9	58.9	58.9	42	35.9	4	12	90	0.00	30.142 
11:15	58.9	58.9	58.9	44	37.0	3	6	90	0.00	30.145 
11:20	58.9	58.9	58.9	42	35.9	4	11	90	0.00	30.145 
11:25	59.0	59.0	59.0	44	37.1	4	9	112	0.00	30.145 
11:30	59.5	59.5	59.5	43	37.0	3	7	90	0.00	30.140 
11:35	59.8	59.8	59.8	44	37.8	3	8	90	0.00	30.140 
11:40	60.2	60.2	60.2	44	38.2	3	7	112	0.00	30.140 
11:45	60.5	60.5	60.5	41	36.7	3	6	90	0.00	30.136 
11:50	60.7	60.7	60.7	41	36.9	4	8	112	0.00	30.136 
11:55	60.9	60.9	60.9	43	38.3	3	7	90	0.00	30.136 
12:00	61.2	61.2	61.2	42	37.9	3	6	90	0.00	30.133 
12:05	61.5	61.5	61.5	41	37.6	3	7	112	0.00	30.133 
12:10	62.0	62.0	62.0	40	37.4	2	6	90	0.00	30.133 
12:15	62.4	62.4	62.4	38	36.5	4	12	112	0.00	30.133 
12:20	62.6	62.6	62.6	40	37.9	4	10	112	0.00	30.133 
12:25	63.1	63.1	63.1	39	37.7	3	6	90	0.00	30.133 
12:30	63.7	63.7	63.7	39	38.3	3	9	90	0.00	30.125 
12:35	64.0	64.0	64.0	39	38.5	3	7	90	0.00	30.125 
12:40	64.5	64.5	64.5	38	38.3	3	6	90	0.00	30.125 
12:45	64.7	64.7	64.7	37	37.8	5	9	112	0.00	30.119 
12:50	64.7	64.7	64.7	38	38.5	5	10	112	0.00	30.119 
12:55	65.0	65.0	65.0	39	39.4	3	9	112	0.00	30.119 
13:00	65.3	65.3	65.3	35	36.9	4	12	90	0.00	30.106 
13:05	65.3	65.3	65.3	37	38.4	4	12	90	0.00	30.106 
13:10	65.6	65.6	65.6	36	37.9	4	7	112	0.00	30.106 
13:15	66.1	66.1	66.1	35	37.6	4	10	90	0.00	30.100 
13:20	66.4	66.4	66.4	35	37.9	4	10	112	0.00	30.100 
13:25	66.9	66.9	66.9	37	39.8	4	9	90	0.00	30.100 
13:30	67.6	67.6	67.6	35	39.0	4	7	90	0.00	30.100 
13:35	68.3	68.3	68.3	31	36.5	3	10	90	0.00	30.100 
13:40	68.4	68.4	68.4	33	38.2	4	10	112	0.00	30.100 
13:45	68.3	68.3	68.3	31	36.5	5	10	90	0.00	30.087 
13:50	68.6	68.6	68.6	30	35.9	5	12	112	0.00	30.087 
13:55	68.9	68.9	68.9	30	36.2	4	9	112	0.00	30.087 
14:00	69.3	69.3	69.3	29	35.7	5	10	112	0.00	30.085 
14:05	69.1	69.1	69.1	27	33.7	4	12	90	0.00	30.085 
14:10	68.9	68.9	68.9	28	34.4	4	9	112	0.00	30.085 
14:15	69.1	69.1	69.1	29	35.5	4	9	112	0.00	30.075 
14:20	69.4	69.4	69.4	29	35.8	4	11	112	0.00	30.075 
14:25	69.8	69.8	69.8	28	35.2	3	7	90	0.00	30.075 
14:30	69.8	69.8	69.8	28	35.2	4	10	90	0.00	30.068 
14:35	69.8	69.8	69.8	28	35.2	5	12	112	0.00	30.068 
14:40	70.3	70.3	70.3	27	34.7	5	9	112	0.00	30.068 
14:45	70.9	70.9	70.9	27	35.2	4	10	90	0.00	30.065 
14:50	70.9	70.9	70.9	27	35.2	5	10	112	0.00	30.065 
14:55	70.9	70.9	70.9	28	36.2	5	12	112	0.00	30.065 
15:00	71.3	71.3	71.3	27	35.6	4	10	90	0.00	30.052 
15:05	71.8	71.8	71.8	26	35.1	5	13	112	0.00	30.052 
15:10	72.3	72.3	72.3	26	35.5	4	11	90	0.00	30.052 
15:15	72.3	72.3	72.3	26	35.5	5	10	112	0.00	30.041 
15:20	72.5	72.5	72.5	25	34.7	4	10	112	0.00	30.041 
15:25	72.8	72.8	72.8	26	35.9	3	10	90	0.00	30.041 
15:30	73.2	73.2	73.2	26	36.2	4	9	90	0.00	30.034 
15:35	73.2	73.2	73.2	25	35.3	5	12	112	0.00	30.034 
15:40	73.0	73.0	73.0	25	35.1	5	11	112	0.00	30.034 
15:45	73.2	73.2	73.2	27	37.2	4	11	90	0.00	30.030 
15:50	73.5	73.5	73.5	27	37.5	4	10	112	0.00	30.030 
15:55	73.5	73.5	73.5	26	36.5	5	12	112	0.00	30.030 
16:00	73.7	73.7	73.7	26	36.7	6	10	112	0.00	30.021 
16:05	73.5	73.5	73.5	26	36.5	5	11	112	0.00	30.021 
16:10	73.7	73.7	73.7	25	35.7	4	10	112	0.00	30.021 
16:15	74.0	74.0	74.0	26	36.9	4	7	112	0.00	30.014 
16:20	74.2	74.2	74.2	23	34.0	6	13	112	0.00	30.014 
16:25	74.2	74.2	74.2	24	35.1	4	9	90	0.00	30.014 
16:30	74.0	74.0	74.0	25	35.9	5	10	90	0.00	30.007 
16:35	73.9	73.9	73.9	24	34.8	5	9	90	0.00	30.007 
16:40	74.0	74.0	74.0	26	36.9	3	10	112	0.00	30.007 
16:45	74.4	74.4	74.4	26	37.3	3	9	112	0.00	30.001 
16:50	74.9	74.9	74.9	25	36.7	4	11	90	0.00	30.001 
16:55	74.9	74.9	74.9	25	36.7	5	12	112	0.00	30.001 
17:00	74.9	74.9	74.9	25	36.7	4	6	90	0.00	29.991 
17:05	75.1	75.1	76.5	25	36.9	3	7	90	0.00	29.991 
17:10	74.9	74.9	74.9	23	34.6	5	10	112	0.00	29.991 
17:15	74.6	74.6	74.6	25	36.4	3	7	90	0.00	29.987 
17:20	74.2	74.2	74.2	25	36.1	4	8	112	0.00	29.987 
17:25	74.0	74.0	74.0	25	35.9	4	9	90	0.00	29.987 
17:30	74.0	74.0	74.0	24	34.9	5	11	112	0.00	29.981 
17:35	74.4	74.4	74.4	24	35.2	3	6	90	0.00	29.981 
17:40	74.7	74.7	74.7	25	36.5	4	8	112	0.00	29.981 
17:45	74.7	74.7	74.7	25	36.5	3	10	112	0.00	29.975 
17:50	74.6	74.6	74.6	25	36.4	3	7	112	0.00	29.975 
17:55	74.4	74.4	74.4	24	35.2	3	7	112	0.00	29.975 
18:00	74.4	74.4	74.4	25	36.3	3	6	112	0.00	29.977 
18:05	74.2	74.2	74.2	25	36.1	2	5	112	0.00	29.977 
18:10	74.0	74.0	74.0	26	36.9	2	6	90	0.00	29.977 
18:15	73.9	73.9	73.9	25	35.9	3	7	90	0.00	29.973 
18:20	73.7	73.7	73.7	25	35.7	3	7	90	0.00	29.973 
18:25	73.3	73.3	73.3	26	36.3	3	7	90	0.00	29.973 
18:30	73.0	73.0	73.0	26	36.1	3	7	90	0.00	29.972 
18:35	72.8	72.8	72.8	27	36.9	3	9	112	0.00	29.972 
18:40	72.7	72.7	72.7	28	37.7	2	6	90	0.00	29.972 
18:45	72.1	72.1	72.1	30	38.9	3	6	90	0.00	29.974 
18:50	71.6	71.6	71.6	35	42.5	1	7	90	0.00	29.974 
18:55	71.1	71.1	71.1	35	42.0	2	6	90	0.00	29.974 
19:00	70.4	70.4	70.4	37	42.9	2	5	112	0.00	29.972 
19:05	70.1	70.1	70.1	38	43.3	2	5	90	0.00	29.972 
19:10	69.6	69.6	69.6	39	43.5	2	5	90	0.00	29.972 
19:15	69.3	69.3	69.3	39	43.3	2	11	90	0.00	29.961 
19:20	68.9	68.9	68.9	39	42.9	2	7	90	0.00	29.961 
19:25	68.4	68.4	68.4	40	43.1	2	7	90	0.00	29.961 
19:30	68.1	68.1	68.1	41	43.5	3	7	112	0.00	29.965 
19:35	67.8	67.8	67.8	40	42.6	2	9	135	0.00	29.965 
19:40	67.4	67.4	67.4	41	42.9	2	6	90	0.00	29.965 
19:45	67.1	67.1	67.1	41	42.6	2	8	90	0.00	29.968 
19:50	66.8	66.8	66.8	42	43.0	2	7	90	0.00	29.968 
19:55	66.4	66.4	66.4	42	42.6	2	5	68	0.00	29.968 
20:00	66.1	66.1	66.1	43	42.9	1	4	90	0.00	29.967 
20:05	65.8	65.8	65.8	43	42.7	2	6	90	0.00	29.967 
20:10	65.5	65.5	65.5	43	42.4	2	4	90	0.00	29.967 
20:15	65.2	65.2	65.2	44	42.7	1	4	90	0.00	29.964 
20:20	64.8	64.8	64.8	44	42.4	2	5	90	0.00	29.964 
20:25	64.7	64.7	64.7	44	42.3	3	6	90	0.00	29.964 
20:30	64.3	64.3	64.3	45	42.5	2	5	90	0.00	29.958 
20:35	64.0	64.0	64.0	45	42.2	1	3	90	0.00	29.958 
20:40	63.9	63.9	63.9	46	42.7	1	5	90	0.00	29.958 
20:45	63.5	63.5	63.5	45	41.8	2	6	90	0.00	29.952 
20:50	63.2	63.2	63.2	45	41.5	2	6	90	0.00	29.952 
20:55	63.1	63.1	63.1	46	42.0	2	6	90	0.00	29.952 
21:00	62.7	62.7	62.7	46	41.6	2	5	112	0.00	29.949 
21:05	62.4	62.4	62.4	45	40.8	3	7	90	0.00	29.949 
21:10	62.3	62.3	62.3	45	40.7	2	6	90	0.00	29.949 
21:15	62.1	62.1	62.1	46	41.1	2	5	90	0.00	29.947 
21:20	61.8	61.8	61.8	46	40.8	3	7	90	0.00	29.947 
21:25	61.6	61.6	61.6	46	40.6	2	5	90	0.00	29.947 
21:30	61.3	61.3	61.3	45	39.8	3	9	90	0.00	29.951 
21:35	61.0	61.0	61.0	46	40.1	3	6	90	0.00	29.951 
21:40	60.7	60.7	60.7	46	39.8	2	5	112	0.00	29.951 
21:45	60.5	60.5	60.5	45	39.1	2	5	90	0.00	29.961 
21:50	60.4	60.4	60.4	46	39.5	1	7	112	0.00	29.961 
21:55	60.2	60.2	60.2	45	38.8	2	7	112	0.00	29.961 
22:00	60.1	60.1	60.1	46	39.2	1	4	90	0.00	29.958 
22:05	59.9	59.9	59.9	47	39.6	1	3	90	0.00	29.958 
22:10	59.6	59.6	59.6	46	38.8	1	5	112	0.00	29.958 
22:15	59.5	59.5	59.5	46	38.7	1	5	90	0.00	29.953 
22:20	59.3	59.3	59.3	47	39.1	1	3	45	0.00	29.953 
22:25	59.2	59.2	59.2	47	39.0	1	4	68	0.00	29.953 
22:30	59.0	59.0	59.0	46	38.2	1	4	68	0.00	29.948 
22:35	58.7	58.7	58.7	47	38.5	2	6	112	0.00	29.948 
22:40	58.4	58.4	58.4	47	38.2	1	5	112	0.00	29.948 
22:45	58.3	58.3	58.3	47	38.2	2	7	90	0.00	29.944 
22:50	58.1	58.1	58.1	49	39.0	1	4	90	0.00	29.944 
22:55	58.0	58.0	58.0	50	39.5	0	3	90	0.00	29.944 
23:00	57.8	57.8	57.8	51	39.8	0	2	90	0.00	29.943 
23:05	57.5	57.5	57.5	52	40.0	0	2	90	0.00	29.943 
23:10	57.3	57.3	57.3	52	39.8	0	2	90	0.00	29.943 
23:15	57.0	57.0	57.0	52	39.5	0	4	90	0.00	29.935 
23:20	56.9	56.9	56.9	53	39.9	1	4	90	0.00	29.935 
23:25	56.6	56.6	56.6	51	38.7	1	5	90	0.00	29.935 
23:30	56.5	56.5	56.5	51	38.6	0	3	90	0.00	29.929 
23:35	56.3	56.3	56.3	52	38.9	1	4	90	0.00	29.929 
23:40	56.2	56.2	56.2	52	38.8	1	8	90	0.00	29.929 
23:45	56.0	56.0	56.0	52	38.6	1	3	90	0.00	29.929 
23:50	56.0	56.0	56.0	52	38.6	1	4	90	0.00	29.929 
23:55	55.9	55.9	55.9	52	38.5	0	3	90	0.00	29.929 

CoCoRaHS
IN-AL-39
A2 Web Hosting
Creative Commons License
GoDaddy
search engine by freefind advanced

loaded 2018-11-17 06:59:18 • last modified 2010-11-18 10:43:29
Privacy PolicyDisclaimer
• wx.awcolley.com is powered by PmWiki v.2002016 •
• all content (unless otherwise noted) © 2018 A W Colley